Weather Station Data

Station Data Captured at Five Minute Intervals Since Midnight Yesterday


Date Time Temp. RH % Dew Pt. Wind Speed Wind Dir. Peak Wind Wind Chill Pressure Precip. Solar W/m2 ET
8/21/17 1:30p 88.3 60 72.7 2.0 S 5.0 88.3 30.071 0.00 659 0.000
8/21/17 1:25p 88.2 57 71.0 2.0 S 5.0 88.2 30.070 0.00 694 0.000
8/21/17 1:20p 88.0 56 70.3 3.0 WSW 9.0 88.0 30.071 0.00 726 0.000
8/21/17 1:15p 87.8 59 71.7 2.0 S 7.0 87.8 30.074 0.00 751 0.000
8/21/17 1:10p 87.3 61 72.2 3.0 SSW 9.0 87.3 30.078 0.00 767 0.000
8/21/17 1:05p 87.5 59 71.4 5.0 SSW 12.0 87.5 30.079 0.00 772 0.000
8/21/17 1:00p 87.5 60 71.9 1.0 SSW 7.0 87.5 30.084 0.00 769 0.021
8/21/17 12:55p 86.9 59 70.8 2.0 SSW 7.0 86.9 30.084 0.00 767 0.000
8/21/17 12:50p 86.7 59 70.7 3.0 SSW 9.0 86.7 30.087 0.00 761 0.000
8/21/17 12:45p 86.5 59 70.5 3.0 SSW 9.0 86.5 30.087 0.00 757 0.000
8/21/17 12:40p 86.5 59 70.5 5.0 SSW 10.0 86.5 30.085 0.00 755 0.000
8/21/17 12:35p 86.7 63 72.6 3.0 S 5.0 86.7 30.084 0.00 748 0.000
8/21/17 12:30p 86.6 61 71.5 2.0 WNW 8.0 86.6 30.087 0.00 740 0.000
8/21/17 12:25p 86.3 60 70.8 2.0 SSW 8.0 86.3 30.089 0.00 732 0.000
8/21/17 12:20p 85.9 60 70.4 3.0 SSW 7.0 85.9 30.089 0.00 726 0.000
8/21/17 12:15p 85.6 62 71.1 2.0 S 4.0 85.6 30.089 0.00 722 0.000
8/21/17 12:10p 85.3 62 70.8 3.0 SSW 11.0 85.3 30.089 0.00 712 0.000
8/21/17 12:05p 85.4 63 71.4 2.0 S 4.0 85.4 30.092 0.00 704 0.000
8/21/17 12:00p 84.9 64 71.4 4.0 SSW 12.0 84.9 30.090 0.00 695 0.012
8/21/17 11:55a 85.1 63 71.1 2.0 S 12.0 85.1 30.092 0.00 685 0.000
8/21/17 11:50a 84.5 65 71.4 3.0 S 5.0 84.5 30.097 0.00 675 0.000
8/21/17 11:45a 84.0 68 72.3 3.0 S 5.0 84.0 30.098 0.00 663 0.000
8/21/17 11:40a 83.9 64 70.4 3.0 S 7.0 83.9 30.101 0.00 653 0.000
8/21/17 11:35a 83.8 65 70.8 2.0 SSW 5.0 83.8 30.103 0.00 643 0.000
8/21/17 11:30a 83.6 65 70.6 2.0 S 7.0 83.6 30.102 0.00 615 0.000
8/21/17 11:25a 83.4 69 72.2 2.0 SSW 6.0 83.4 30.099 0.00 188 0.000
8/21/17 11:20a 82.9 67 70.8 2.0 S 5.0 82.9 30.103 0.00 149 0.000
8/21/17 11:15a 82.6 69 71.4 3.0 S 7.0 82.6 30.104 0.00 92 0.000
8/21/17 11:10a 82.3 70 71.5 2.0 SSW 6.0 82.3 30.100 0.00 91 0.000
8/21/17 11:05a 82.0 71 71.7 3.0 SSW 6.0 82.0 30.096 0.00 115 0.000
8/21/17 11:00a 81.6 71 71.3 1.0 S 6.0 81.6 30.098 0.00 103 0.003
8/21/17 10:55a 81.3 70 70.6 2.0 S 5.0 81.3 30.093 0.00 123 0.000
8/21/17 10:50a 81.3 70 70.6 3.0 S 6.0 81.3 30.095 0.00 156 0.000
8/21/17 10:45a 81.1 71 70.8 2.0 SSW 5.0 81.1 30.096 0.00 100 0.000
8/21/17 10:40a 80.8 73 71.3 1.0 W 5.0 80.8 30.097 0.00 98 0.000
8/21/17 10:35a 80.3 73 70.9 0.0 SSW 2.0 80.3 30.095 0.00 89 0.000
8/21/17 10:30a 80.0 72 70.2 1.0 SSW 3.0 80.0 30.094 0.00 98 0.000
8/21/17 10:25a 79.8 72 70.0 1.0 S 4.0 79.8 30.095 0.00 109 0.000
8/21/17 10:20a 79.7 73 70.3 2.0 S 6.0 79.7 30.096 0.00 94 0.000
8/21/17 10:15a 79.6 72 69.8 2.0 SSW 5.0 79.6 30.098 0.00 122 0.000
8/21/17 10:10a 79.5 74 70.5 1.0 WSW 4.0 79.5 30.098 0.00 78 0.000
8/21/17 10:05a 79.2 74 70.2 1.0 S 4.0 79.2 30.094 0.00 101 0.000
8/21/17 10:00a 78.9 75 70.3 2.0 S 5.0 78.9 30.091 0.00 104 0.004
8/21/17 9:55a 78.4 76 70.2 1.0 SSW 4.0 78.4 30.091 0.00 213 0.000
8/21/17 9:50a 78.0 76 69.8 1.0 S 4.0 78.0 30.090 0.00 234 0.000
8/21/17 9:45a 77.6 77 69.8 2.0 SSW 5.0 77.6 30.087 0.00 69 0.000
8/21/17 9:40a 77.1 77 69.3 3.0 S 6.0 77.1 30.085 0.00 63 0.000
8/21/17 9:35a 76.7 78 69.3 3.0 S 6.0 76.7 30.082 0.00 80 0.000
8/21/17 9:30a 76.4 79 69.4 3.0 S 7.0 76.4 30.086 0.00 152 0.000
8/21/17 9:25a 76.0 80 69.4 2.0 S 6.0 76.0 30.084 0.00 131 0.000
8/21/17 9:20a 75.5 81 69.3 2.0 S 4.0 75.5 30.084 0.00 143 0.000
8/21/17 9:15a 75.1 81 68.9 3.0 S 5.0 75.1 30.087 0.00 157 0.000
8/21/17 9:10a 74.7 81 68.5 3.0 S 7.0 74.7 30.087 0.00 85 0.000
8/21/17 9:05a 74.5 81 68.3 3.0 S 6.0 74.5 30.087 0.00 62 0.000
8/21/17 9:00a 74.2 82 68.3 2.0 S 6.0 74.2 30.089 0.00 51 0.001
8/21/17 8:55a 74.0 82 68.2 2.0 S 6.0 74.0 30.087 0.00 49 0.000
8/21/17 8:50a 73.9 83 68.4 2.0 S 5.0 73.9 30.090 0.00 48 0.000
8/21/17 8:45a 73.7 83 68.2 2.0 S 4.0 73.7 30.091 0.00 48 0.000
8/21/17 8:40a 73.6 83 68.1 1.0 S 3.0 73.6 30.090 0.00 54 0.000
8/21/17 8:35a 73.5 83 68.0 1.0 S 4.0 73.5 30.089 0.00 44 0.000
8/21/17 8:30a 73.5 83 68.0 1.0 S 4.0 73.5 30.089 0.00 40 0.000
8/21/17 8:25a 73.3 83 67.8 3.0 S 6.0 73.3 30.089 0.00 40 0.000
8/21/17 8:20a 73.1 83 67.6 1.0 S 3.0 73.1 30.089 0.00 45 0.000
8/21/17 8:15a 73.0 83 67.5 1.0 S 2.0 73.0 30.090 0.00 40 0.000
8/21/17 8:10a 72.8 84 67.7 1.0 S 4.0 72.8 30.090 0.00 33 0.000
8/21/17 8:05a 72.6 84 67.5 1.0 S 3.0 72.6 30.088 0.00 33 0.000
8/21/17 8:00a 72.4 84 67.3 2.0 S 3.0 72.4 30.089 0.00 32 0.001
8/21/17 7:55a 72.1 85 67.3 1.0 SSW 3.0 72.1 30.092 0.00 32 0.000
8/21/17 7:50a 71.9 85 67.1 1.0 S 3.0 71.9 30.090 0.00 31 0.000
8/21/17 7:45a 71.7 85 66.9 1.0 S 4.0 71.7 30.093 0.00 28 0.000
8/21/17 7:40a 71.6 86 67.2 0.0 --- 0.0 71.6 30.091 0.00 23 0.000
8/21/17 7:35a 71.5 86 67.1 1.0 S 3.0 71.5 30.091 0.00 19 0.000
8/21/17 7:30a 71.3 86 66.9 1.0 S 2.0 71.3 30.089 0.00 17 0.000
8/21/17 7:25a 71.2 86 66.8 1.0 S 3.0 71.2 30.089 0.00 13 0.000
8/21/17 7:20a 71.3 86 66.9 0.0 S 2.0 71.3 30.090 0.00 9 0.000
8/21/17 7:15a 71.3 86 66.9 1.0 S 2.0 71.3 30.090 0.00 5 0.000
8/21/17 7:10a 71.5 85 66.8 0.0 S 2.0 71.5 30.090 0.00 0 0.000
8/21/17 7:05a 71.6 85 66.8 0.0 S 1.0 71.6 30.089 0.00 0 0.000
8/21/17 7:00a 71.5 85 66.8 0.0 S 2.0 71.5 30.087 0.00 0 0.001
8/21/17 6:55a 71.5 85 66.8 0.0 S 1.0 71.5 30.086 0.00 0 0.000
8/21/17 6:50a 71.7 85 66.9 0.0 SSW 2.0 71.7 30.083 0.00 0 0.000
8/21/17 6:45a 71.7 85 66.9 0.0 --- 0.0 71.7 30.080 0.00 0 0.000
8/21/17 6:40a 71.8 85 67.0 0.0 SSW 1.0 71.8 30.076 0.00 0 0.000
8/21/17 6:35a 71.8 85 67.0 0.0 SSW 3.0 71.8 30.076 0.00 0 0.000
8/21/17 6:30a 71.9 85 67.1 1.0 SSW 2.0 71.9 30.076 0.00 0 0.000
8/21/17 6:25a 71.9 85 67.1 1.0 SSE 2.0 71.9 30.076 0.00 0 0.000
8/21/17 6:20a 71.9 85 67.1 1.0 S 4.0 71.9 30.074 0.00 0 0.000
8/21/17 6:15a 72.0 84 66.9 1.0 S 2.0 72.0 30.073 0.00 0 0.000
8/21/17 6:10a 72.1 84 67.0 1.0 S 2.0 72.1 30.072 0.00 0 0.000
8/21/17 6:05a 72.1 84 67.0 1.0 S 3.0 72.1 30.071 0.00 0 0.000
8/21/17 6:00a 72.1 84 67.0 2.0 S 4.0 72.1 30.070 0.00 0 0.001
8/21/17 5:55a 72.1 84 67.0 1.0 SSE 4.0 72.1 30.073 0.00 0 0.000
8/21/17 5:50a 72.2 84 67.1 2.0 S 4.0 72.2 30.069 0.00 0 0.000
8/21/17 5:45a 72.4 84 67.3 1.0 S 2.0 72.4 30.069 0.00 0 0.000
8/21/17 5:40a 72.6 84 67.5 0.0 S 2.0 72.6 30.067 0.00 0 0.000
8/21/17 5:35a 72.7 83 67.2 0.0 S 2.0 72.7 30.067 0.00 0 0.000
8/21/17 5:30a 72.8 83 67.3 0.0 S 1.0 72.8 30.064 0.00 0 0.000
8/21/17 5:25a 72.8 83 67.3 0.0 S 4.0 72.8 30.061 0.00 0 0.000
8/21/17 5:20a 72.9 83 67.4 1.0 S 3.0 72.9 30.058 0.00 0 0.000
8/21/17 5:15a 72.9 83 67.4 1.0 SSW 2.0 72.9 30.059 0.00 0 0.000
8/21/17 5:10a 73.0 83 67.5 1.0 SSW 3.0 73.0 30.056 0.00 0 0.000
8/21/17 5:05a 73.0 83 67.5 1.0 S 3.0 73.0 30.056 0.00 0 0.000
8/21/17 5:00a 73.1 83 67.6 2.0 SSW 3.0 73.1 30.052 0.00 0 0.001
8/21/17 4:55a 73.1 83 67.6 0.0 S 2.0 73.1 30.055 0.00 0 0.000
8/21/17 4:50a 73.2 83 67.7 1.0 S 3.0 73.2 30.054 0.00 0 0.000
8/21/17 4:45a 73.3 83 67.8 1.0 S 3.0 73.3 30.050 0.00 0 0.000
8/21/17 4:40a 73.3 82 67.5 1.0 S 2.0 73.3 30.052 0.00 0 0.000
8/21/17 4:35a 73.3 82 67.5 2.0 SSW 5.0 73.3 30.050 0.00 0 0.000
8/21/17 4:30a 73.4 82 67.6 2.0 S 5.0 73.4 30.049 0.00 0 0.000
8/21/17 4:25a 73.4 82 67.6 2.0 SSW 4.0 73.4 30.048 0.00 0 0.000
8/21/17 4:20a 73.5 82 67.7 2.0 SSW 4.0 73.5 30.049 0.00 0 0.000
8/21/17 4:15a 73.6 82 67.8 1.0 SSW 3.0 73.6 30.049 0.00 0 0.000
8/21/17 4:10a 73.6 82 67.8 0.0 SSW 2.0 73.6 30.054 0.00 0 0.000
8/21/17 4:05a 73.6 82 67.8 1.0 SSW 3.0 73.6 30.053 0.00 0 0.000
8/21/17 4:00a 73.6 82 67.8 1.0 SSW 4.0 73.6 30.055 0.00 0 0.001
8/21/17 3:55a 73.5 82 67.7 1.0 SSW 3.0 73.5 30.052 0.00 0 0.000
8/21/17 3:50a 73.6 82 67.8 1.0 SSW 4.0 73.6 30.053 0.00 0 0.000
8/21/17 3:45a 73.6 82 67.8 1.0 SSW 2.0 73.6 30.055 0.00 0 0.000
8/21/17 3:40a 73.6 82 67.8 0.0 SSW 2.0 73.6 30.056 0.00 0 0.000
8/21/17 3:35a 73.7 82 67.9 0.0 SSW 2.0 73.7 30.056 0.00 0 0.000
8/21/17 3:30a 73.8 82 68.0 1.0 SSW 3.0 73.8 30.054 0.00 0 0.000
8/21/17 3:25a 73.9 82 68.1 0.0 SSW 1.0 73.9 30.054 0.00 0 0.000
8/21/17 3:20a 74.0 81 67.8 0.0 SSW 2.0 74.0 30.058 0.00 0 0.000
8/21/17 3:15a 74.2 81 68.0 0.0 SSW 1.0 74.2 30.057 0.00 0 0.000
8/21/17 3:10a 74.3 81 68.1 0.0 SSW 1.0 74.3 30.061 0.00 0 0.000
8/21/17 3:05a 74.5 80 67.9 1.0 SSW 3.0 74.5 30.059 0.00 0 0.000
8/21/17 3:00a 74.6 80 68.0 0.0 SSW 2.0 74.6 30.059 0.00 0 0.001
8/21/17 2:55a 74.8 80 68.2 0.0 SSW 2.0 74.8 30.058 0.00 0 0.000
8/21/17 2:50a 74.9 79 67.9 1.0 SSW 2.0 74.9 30.059 0.00 0 0.000
8/21/17 2:45a 75.0 79 68.0 1.0 SSW 2.0 75.0 30.057 0.00 0 0.000
8/21/17 2:40a 75.1 79 68.1 1.0 SSW 3.0 75.1 30.059 0.00 0 0.000
8/21/17 2:35a 75.2 79 68.2 1.0 S 4.0 75.2 30.057 0.00 0 0.000
8/21/17 2:30a 75.2 79 68.2 1.0 S 3.0 75.2 30.053 0.00 0 0.000
8/21/17 2:25a 75.3 79 68.3 1.0 SSW 3.0 75.3 30.051 0.00 0 0.000
8/21/17 2:20a 75.4 79 68.4 1.0 SSW 3.0 75.4 30.049 0.00 0 0.000
8/21/17 2:15a 75.5 79 68.5 1.0 SSW 3.0 75.5 30.049 0.00 0 0.000
8/21/17 2:10a 75.7 79 68.7 1.0 SSW 2.0 75.7 30.049 0.00 0 0.000
8/21/17 2:05a 75.7 79 68.7 1.0 SSW 2.0 75.7 30.044 0.00 0 0.000
8/21/17 2:00a 75.8 79 68.8 1.0 SSW 3.0 75.8 30.043 0.00 0 0.001
8/21/17 1:55a 75.9 79 68.9 1.0 SSW 3.0 75.9 30.046 0.00 0 0.000
8/21/17 1:50a 76.0 79 69.0 1.0 S 3.0 76.0 30.047 0.00 0 0.000
8/21/17 1:45a 76.1 79 69.1 0.0 S 2.0 76.1 30.047 0.00 0 0.000
8/21/17 1:40a 76.2 79 69.2 0.0 SSW 2.0 76.2 30.049 0.00 0 0.000
8/21/17 1:35a 76.3 79 69.3 1.0 SSW 3.0 76.3 30.048 0.00 0 0.000
8/21/17 1:30a 76.5 78 69.1 1.0 SSW 4.0 76.5 30.047 0.00 0 0.000
8/21/17 1:25a 76.6 78 69.2 1.0 SSW 4.0 76.6 30.047 0.00 0 0.000
8/21/17 1:20a 76.7 78 69.3 1.0 S 3.0 76.7 30.047 0.00 0 0.000
8/21/17 1:15a 76.8 78 69.4 1.0 S 3.0 76.8 30.048 0.00 0 0.000
8/21/17 1:10a 76.9 78 69.5 1.0 SW 3.0 76.9 30.050 0.00 0 0.000
8/21/17 1:05a 76.9 78 69.5 2.0 SSW 4.0 76.9 30.052 0.00 0 0.000
8/21/17 1:00a 76.9 78 69.5 1.0 SSW 4.0 76.9 30.047 0.00 0 0.001
8/21/17 12:55a 76.8 78 69.4 1.0 S 3.0 76.8 30.045 0.00 0 0.000
8/21/17 12:50a 76.9 79 69.9 1.0 S 2.0 76.9 30.046 0.00 0 0.000
8/21/17 12:45a 77.0 78 69.6 1.0 S 2.0 77.0 30.047 0.00 0 0.000
8/21/17 12:40a 77.1 78 69.7 1.0 S 2.0 77.1 30.048 0.00 0 0.000
8/21/17 12:35a 77.1 78 69.7 1.0 S 2.0 77.1 30.047 0.00 0 0.000
8/21/17 12:30a 77.1 78 69.7 1.0 S 2.0 77.1 30.046 0.00 0 0.000
8/21/17 12:25a 77.0 79 70.0 0.0 --- 0.0 77.0 30.046 0.00 0 0.000
8/21/17 12:20a 77.0 79 70.0 0.0 --- 0.0 77.0 30.044 0.00 0 0.000
8/21/17 12:15a 77.1 79 70.1 0.0 --- 0.0 77.1 30.044 0.00 0 0.000
8/21/17 12:10a 77.3 79 70.3 0.0 --- 0.0 77.3 30.043 0.00 0 0.000
8/21/17 12:05a 77.3 79 70.3 0.0 S 1.0 77.3 30.041 0.00 0 0.000
8/21/17 12:00a 77.4 78 70.0 0.0 --- 0.0 77.4 30.042 0.00 0 0.001
8/20/17 11:55p 77.5 79 70.5 0.0 --- 0.0 77.5 30.043 0.00 0 0.000
8/20/17 11:50p 77.5 79 70.5 0.0 S 1.0 77.5 30.040 0.00 0 0.000
8/20/17 11:45p 77.5 79 70.5 0.0 S 1.0 77.5 30.038 0.00 0 0.000
8/20/17 11:40p 77.5 79 70.5 0.0 S 1.0 77.5 30.038 0.00 0 0.000
8/20/17 11:35p 77.6 79 70.6 0.0 S 1.0 77.6 30.035 0.00 0 0.000
8/20/17 11:30p 77.6 78 70.2 0.0 --- 0.0 77.6 30.033 0.00 0 0.000
8/20/17 11:25p 77.8 78 70.4 0.0 --- 0.0 77.8 30.032 0.00 0 0.000
8/20/17 11:20p 77.9 77 70.1 0.0 --- 0.0 77.9 30.027 0.00 0 0.000
8/20/17 11:15p 77.9 77 70.1 0.0 --- 0.0 77.9 30.029 0.00 0 0.000
8/20/17 11:10p 77.8 77 70.0 0.0 --- 0.0 77.8 30.030 0.00 0 0.000
8/20/17 11:05p 77.6 76 69.4 0.0 S 1.0 77.6 30.029 0.00 0 0.000
8/20/17 11:00p 77.6 76 69.4 0.0 --- 0.0 77.6 30.027 0.00 0 0.001
8/20/17 10:55p 77.7 75 69.1 0.0 --- 0.0 77.7 30.027 0.00 0 0.000
8/20/17 10:50p 78.0 75 69.4 0.0 --- 0.0 78.0 30.028 0.00 0 0.000
8/20/17 10:45p 78.0 74 69.0 0.0 --- 0.0 78.0 30.029 0.00 0 0.000
8/20/17 10:40p 78.1 73 68.7 0.0 --- 0.0 78.1 30.030 0.00 0 0.000
8/20/17 10:35p 78.1 73 68.7 0.0 --- 0.0 78.1 30.029 0.00 0 0.000
8/20/17 10:30p 78.1 73 68.7 0.0 --- 0.0 78.1 30.030 0.00 0 0.000
8/20/17 10:25p 78.0 72 68.2 0.0 --- 0.0 78.0 30.030 0.00 0 0.000
8/20/17 10:20p 77.8 72 68.0 0.0 --- 0.0 77.8 30.032 0.00 0 0.000
8/20/17 10:15p 77.7 71 67.5 0.0 --- 0.0 77.7 30.029 0.00 0 0.000
8/20/17 10:10p 77.6 71 67.4 0.0 --- 0.0 77.6 30.028 0.00 0 0.000
8/20/17 10:05p 77.7 71 67.5 0.0 --- 0.0 77.7 30.028 0.00 0 0.000
8/20/17 10:00p 77.8 71 67.6 0.0 --- 0.0 77.8 30.027 0.00 0 0.001
8/20/17 9:55p 77.8 71 67.6 0.0 --- 0.0 77.8 30.022 0.00 0 0.000
8/20/17 9:50p 77.9 71 67.7 0.0 --- 0.0 77.9 30.020 0.00 0 0.000
8/20/17 9:45p 78.1 72 68.3 0.0 --- 0.0 78.1 30.017 0.00 0 0.000
8/20/17 9:40p 78.4 73 69.0 0.0 --- 0.0 78.4 30.015 0.00 0 0.000
8/20/17 9:35p 78.7 72 68.9 0.0 --- 0.0 78.7 30.014 0.00 0 0.000
8/20/17 9:30p 78.9 71 68.7 0.0 --- 0.0 78.9 30.013 0.00 0 0.000
8/20/17 9:25p 79.0 71 68.8 0.0 --- 0.0 79.0 30.012 0.00 0 0.000
8/20/17 9:20p 78.9 70 68.3 0.0 --- 0.0 78.9 30.010 0.00 0 0.000
8/20/17 9:15p 79.0 70 68.4 0.0 --- 0.0 79.0 30.009 0.00 0 0.000
8/20/17 9:10p 79.1 70 68.5 0.0 --- 0.0 79.1 30.009 0.00 0 0.000
8/20/17 9:05p 79.1 69 68.1 0.0 --- 0.0 79.1 30.007 0.00 0 0.000
8/20/17 9:00p 79.4 69 68.3 0.0 --- 0.0 79.4 30.007 0.00 0 0.000
8/20/17 8:55p 79.6 70 69.0 0.0 --- 0.0 79.6 30.010 0.00 0 0.000
8/20/17 8:50p 79.8 69 68.7 0.0 --- 0.0 79.8 30.008 0.00 0 0.000
8/20/17 8:45p 80.1 69 69.0 0.0 --- 0.0 80.1 30.007 0.00 0 0.000
8/20/17 8:40p 80.3 68 68.8 0.0 --- 0.0 80.3 30.009 0.00 0 0.000
8/20/17 8:35p 80.5 67 68.5 0.0 --- 0.0 80.5 30.010 0.00 0 0.000
8/20/17 8:30p 80.8 68 69.2 0.0 --- 0.0 80.8 30.011 0.00 0 0.000
8/20/17 8:25p 81.2 66 68.8 0.0 --- 0.0 81.2 30.011 0.00 5 0.000
8/20/17 8:20p 81.5 67 69.5 0.0 --- 0.0 81.5 30.013 0.00 12 0.000
8/20/17 8:15p 81.6 65 68.7 0.0 --- 0.0 81.6 30.011 0.00 18 0.000
8/20/17 8:10p 81.8 66 69.3 0.0 --- 0.0 81.8 30.012 0.00 19 0.000
8/20/17 8:05p 81.9 64 68.5 0.0 --- 0.0 81.9 30.011 0.00 18 0.000
8/20/17 8:00p 82.1 67 70.1 0.0 --- 0.0 82.1 30.008 0.00 20 0.001
8/20/17 7:55p 82.3 65 69.4 0.0 --- 0.0 82.3 30.009 0.00 22 0.000
8/20/17 7:50p 82.6 66 70.1 0.0 --- 0.0 82.6 30.006 0.00 25 0.000
8/20/17 7:45p 82.9 64 69.5 0.0 --- 0.0 82.9 30.008 0.00 27 0.000
8/20/17 7:40p 83.1 64 69.7 0.0 --- 0.0 83.1 30.007 0.00 32 0.000
8/20/17 7:35p 83.4 64 69.9 0.0 --- 0.0 83.4 30.008 0.00 35 0.000
8/20/17 7:30p 83.6 64 70.1 0.0 --- 0.0 83.6 30.009 0.00 37 0.000
8/20/17 7:25p 83.9 62 69.5 0.0 --- 0.0 83.9 30.007 0.00 39 0.000
8/20/17 7:20p 84.2 61 69.3 0.0 S 1.0 84.2 30.003 0.00 36 0.000
8/20/17 7:15p 84.7 63 70.7 0.0 --- 0.0 84.7 30.002 0.00 35 0.000
8/20/17 7:10p 85.3 60 69.8 0.0 --- 0.0 85.3 30.000 0.00 40 0.000
8/20/17 7:05p 85.6 59 69.6 0.0 --- 0.0 85.6 29.996 0.00 47 0.000
8/20/17 7:00p 86.0 59 70.0 0.0 S 1.0 86.0 29.998 0.00 71 0.006
8/20/17 6:55p 86.2 58 69.7 0.0 S 1.0 86.2 29.996 0.00 100 0.000
8/20/17 6:50p 86.2 55 68.1 0.0 S 3.0 86.2 29.995 0.00 204 0.000
8/20/17 6:45p 86.2 58 69.7 0.0 S 3.0 86.2 29.993 0.00 257 0.000
8/20/17 6:40p 86.1 56 68.6 0.0 S 3.0 86.1 29.991 0.00 285 0.000
8/20/17 6:35p 85.8 57 68.8 0.0 S 2.0 85.8 29.989 0.00 246 0.000
8/20/17 6:30p 85.7 57 68.7 0.0 S 3.0 85.7 29.990 0.00 194 0.000
8/20/17 6:25p 85.9 57 68.9 1.0 S 6.0 85.9 29.992 0.00 161 0.000
8/20/17 6:20p 85.9 58 69.4 0.0 S 1.0 85.9 29.991 0.00 229 0.000
8/20/17 6:15p 85.7 57 68.7 2.0 S 5.0 85.7 29.989 0.00 314 0.000
8/20/17 6:10p 85.8 58 69.3 1.0 S 4.0 85.8 29.992 0.00 302 0.000
8/20/17 6:05p 86.0 56 68.5 2.0 S 5.0 86.0 29.993 0.00 227 0.000
8/20/17 6:00p 86.5 55 68.4 2.0 SSW 5.0 86.5 29.991 0.00 329 0.012
8/20/17 5:55p 86.8 54 68.2 2.0 S 6.0 86.8 29.988 0.00 394 0.000
8/20/17 5:50p 86.8 58 70.2 0.0 SSW 2.0 86.8 29.985 0.00 395 0.000
8/20/17 5:45p 86.7 57 69.6 2.0 SSW 6.0 86.7 29.983 0.00 397 0.000
8/20/17 5:40p 87.0 57 69.9 1.0 S 4.0 87.0 29.985 0.00 374 0.000
8/20/17 5:35p 87.1 57 70.0 1.0 SSW 4.0 87.1 29.985 0.00 412 0.000
8/20/17 5:30p 87.0 56 69.4 2.0 S 5.0 87.0 29.982 0.00 448 0.000
8/20/17 5:25p 87.0 56 69.4 1.0 SSE 4.0 87.0 29.982 0.00 473 0.000
8/20/17 5:20p 87.3 54 68.6 3.0 SSW 7.0 87.3 29.983 0.00 491 0.000
8/20/17 5:15p 88.1 55 69.9 1.0 SW 5.0 88.1 29.984 0.00 488 0.000
8/20/17 5:10p 88.3 54 69.5 3.0 SSW 7.0 88.3 29.983 0.00 501 0.000
8/20/17 5:05p 88.3 55 70.1 1.0 SSW 4.0 88.3 29.982 0.00 525 0.000
8/20/17 5:00p 88.2 54 69.5 1.0 SSW 5.0 88.2 29.985 0.00 531 0.015
8/20/17 4:55p 88.3 55 70.1 1.0 SW 5.0 88.3 29.981 0.00 558 0.000
8/20/17 4:50p 87.9 55 69.7 2.0 S 4.0 87.9 29.982 0.00 580 0.000
8/20/17 4:45p 87.6 59 71.5 1.0 W 6.0 87.6 29.981 0.00 551 0.000
8/20/17 4:40p 87.1 60 71.5 2.0 S 7.0 87.1 29.982 0.00 554 0.000
8/20/17 4:35p 86.9 57 69.8 1.0 SSW 5.0 86.9 29.982 0.00 564 0.000
8/20/17 4:30p 86.8 59 70.8 2.0 S 5.0 86.8 29.982 0.00 525 0.000
8/20/17 4:25p 87.2 58 70.6 3.0 S 5.0 87.2 29.983 0.00 618 0.000
8/20/17 4:20p 87.1 60 71.5 2.0 WNW 6.0 87.1 29.987 0.00 613 0.000
8/20/17 4:15p 86.7 57 69.6 2.0 S 6.0 86.7 29.989 0.00 623 0.000
8/20/17 4:10p 86.0 62 71.5 1.0 SE 4.0 86.0 29.988 0.00 611 0.000
8/20/17 4:05p 85.6 61 70.6 1.0 S 4.0 85.6 29.988 0.00 325 0.000
8/20/17 4:00p 85.6 62 71.1 1.0 SSW 6.0 85.6 29.990 0.00 292 0.011
8/20/17 3:55p 85.7 60 70.2 1.0 S 4.0 85.7 29.992 0.00 282 0.000
8/20/17 3:50p 86.0 59 70.0 2.0 SSE 6.0 86.0 29.990 0.00 296 0.000
8/20/17 3:45p 86.4 56 68.8 2.0 SSW 7.0 86.4 29.993 0.00 345 0.000
8/20/17 3:40p 86.4 60 70.9 1.0 SSW 4.0 86.4 29.991 0.00 329 0.000
8/20/17 3:35p 86.1 58 69.6 1.0 S 4.0 86.1 29.993 0.00 381 0.000
8/20/17 3:30p 86.1 57 69.1 2.0 SSW 6.0 86.1 29.993 0.00 352 0.000
8/20/17 3:25p 86.4 57 69.4 1.0 S 5.0 86.4 29.997 0.00 314 0.000
8/20/17 3:20p 86.8 56 69.2 2.0 S 6.0 86.8 29.997 0.00 321 0.000
8/20/17 3:15p 87.1 53 67.9 2.0 S 5.0 87.1 30.000 0.00 361 0.000
8/20/17 3:10p 87.7 53 68.4 2.0 S 5.0 87.7 30.001 0.00 464 0.000
8/20/17 3:05p 87.7 57 70.6 2.0 NW 4.0 87.7 30.000 0.00 767 0.000
8/20/17 3:00p 87.4 52 67.6 2.0 WNW 7.0 87.4 30.001 0.00 272 0.020
8/20/17 2:55p 87.2 55 69.1 2.0 WNW 6.0 87.2 30.004 0.00 698 0.000
8/20/17 2:50p 86.9 55 68.8 4.0 SSW 11.0 86.9 30.007 0.00 777 0.000
8/20/17 2:45p 87.3 55 69.2 3.0 SSW 8.0 87.3 30.008 0.00 748 0.000
8/20/17 2:40p 87.6 52 67.8 1.0 SSE 4.0 87.6 30.010 0.00 649 0.000
8/20/17 2:35p 87.5 55 69.3 1.0 S 5.0 87.5 30.011 0.00 759 0.000
8/20/17 2:30p 87.6 53 68.4 2.0 SSW 5.0 87.6 30.013 0.00 764 0.000
8/20/17 2:25p 88.1 55 69.9 2.0 S 5.0 88.1 30.017 0.00 731 0.000
8/20/17 2:20p 88.3 53 69.0 1.0 SSE 4.0 88.3 30.018 0.00 832 0.000
8/20/17 2:15p 88.3 53 69.0 1.0 SW 6.0 88.3 30.019 0.00 810 0.000
8/20/17 2:10p 88.0 53 68.7 2.0 NW 5.0 88.0 30.018 0.00 825 0.000
8/20/17 2:05p 87.4 56 69.8 1.0 SW 3.0 87.4 30.017 0.00 825 0.000
8/20/17 2:00p 86.9 54 68.3 2.0 SSW 5.0 86.9 30.020 0.00 802 0.022
8/20/17 1:55p 86.8 51 66.5 2.0 S 5.0 86.8 30.020 0.00 775 0.000
8/20/17 1:50p 86.7 53 67.5 1.0 WSW 4.0 86.7 30.020 0.00 604 0.000
8/20/17 1:45p 86.3 60 70.8 2.0 WNW 6.0 86.3 30.022 0.00 859 0.000
8/20/17 1:40p 86.1 59 70.1 3.0 SSW 6.0 86.1 30.022 0.00 848 0.000
8/20/17 1:35p 86.2 61 71.2 2.0 S 5.0 86.2 30.023 0.00 866 0.000
8/20/17 1:30p 86.1 60 70.6 3.0 SSE 10.0 86.1 30.025 0.00 842 0.000
8/20/17 1:25p 86.1 59 70.1 2.0 S 6.0 86.1 30.022 0.00 841 0.000
8/20/17 1:20p 86.0 61 71.0 2.0 SSW 7.0 86.0 30.025 0.00 837 0.000
8/20/17 1:15p 85.4 61 70.4 1.0 S 4.0 85.4 30.027 0.00 824 0.000
8/20/17 1:10p 84.9 63 70.9 4.0 S 7.0 84.9 30.027 0.00 821 0.000
8/20/17 1:05p 84.8 65 71.7 4.0 S 10.0 84.8 30.028 0.00 807 0.000
8/20/17 1:00p 84.8 64 71.3 4.0 S 10.0 84.8 30.029 0.00 816 0.020
8/20/17 12:55p 84.9 64 71.4 3.0 SSW 7.0 84.9 30.030 0.00 817 0.000
8/20/17 12:50p 85.1 64 71.5 2.0 SSE 7.0 85.1 30.031 0.00 822 0.000
8/20/17 12:45p 84.7 65 71.6 1.0 S 5.0 84.7 30.032 0.00 800 0.000
8/20/17 12:40p 84.5 67 72.3 2.0 S 5.0 84.5 30.036 0.00 787 0.000
8/20/17 12:35p 84.7 65 71.6 3.0 SSW 6.0 84.7 30.034 0.00 775 0.000
8/20/17 12:30p 84.8 64 71.3 2.0 W 7.0 84.8 30.036 0.00 794 0.000
8/20/17 12:25p 84.4 65 71.3 2.0 SW 7.0 84.4 30.036 0.00 777 0.000
8/20/17 12:20p 84.1 68 72.4 3.0 SSW 7.0 84.1 30.038 0.00 781 0.000
8/20/17 12:15p 83.9 67 71.8 2.0 W 7.0 83.9 30.038 0.00 764 0.000
8/20/17 12:10p 83.7 66 71.1 2.0 SSE 6.0 83.7 30.034 0.00 748 0.000
8/20/17 12:05p 83.5 68 71.8 1.0 S 3.0 83.5 30.035 0.00 736 0.000
8/20/17 12:00p 83.1 67 71.0 2.0 S 6.0 83.1 30.034 0.00 725 0.012
8/20/17 11:55a 82.9 70 72.1 3.0 SSW 7.0 82.9 30.038 0.00 710 0.000
8/20/17 11:50a 82.5 71 72.1 2.0 S 7.0 82.5 30.037 0.00 701 0.000
8/20/17 11:45a 82.3 69 71.1 2.0 S 7.0 82.3 30.035 0.00 692 0.000
8/20/17 11:40a 82.0 68 70.4 2.0 SSW 5.0 82.0 30.035 0.00 682 0.000
8/20/17 11:35a 81.8 71 71.5 1.0 SW 4.0 81.8 30.033 0.00 671 0.000
8/20/17 11:30a 81.6 69 70.4 4.0 S 8.0 81.6 30.034 0.00 657 0.000
8/20/17 11:25a 81.6 74 72.5 1.0 N 3.0 81.6 30.032 0.00 297 0.000
8/20/17 11:20a 81.1 73 71.6 1.0 S 6.0 81.1 30.028 0.00 154 0.000
8/20/17 11:15a 80.8 75 72.1 1.0 SSW 4.0 80.8 30.027 0.00 71 0.000
8/20/17 11:10a 80.3 75 71.6 1.0 SSW 4.0 80.3 30.020 0.00 69 0.000
8/20/17 11:05a 80.0 74 71.0 2.0 SSW 4.0 80.0 30.016 0.00 73 0.000
8/20/17 11:00a 79.9 76 71.7 0.0 S 1.0 79.9 30.018 0.00 68 0.002
8/20/17 10:55a 79.4 75 70.8 2.0 S 6.0 79.4 30.018 0.00 95 0.000
8/20/17 10:50a 79.2 76 71.0 1.0 S 4.0 79.2 30.018 0.00 78 0.000
8/20/17 10:45a 78.8 79 71.7 0.0 S 2.0 78.8 30.017 0.00 68 0.000
8/20/17 10:40a 78.5 78 71.1 1.0 S 4.0 78.5 30.017 0.00 66 0.000
8/20/17 10:35a 78.2 79 71.2 1.0 SSW 4.0 78.2 30.018 0.00 61 0.000
8/20/17 10:30a 77.9 79 70.9 1.0 SSW 3.0 77.9 30.017 0.00 64 0.000
8/20/17 10:25a 77.5 80 70.8 1.0 SSW 4.0 77.5 30.019 0.00 64 0.000
8/20/17 10:20a 77.2 79 70.2 1.0 SSW 3.0 77.2 30.022 0.00 96 0.000
8/20/17 10:15a 77.1 81 70.8 1.0 S 3.0 77.1 30.024 0.00 69 0.000
8/20/17 10:10a 76.7 81 70.4 1.0 SSW 3.0 76.7 30.024 0.00 67 0.000
8/20/17 10:05a 76.5 82 70.6 1.0 SSW 3.0 76.5 30.023 0.00 83 0.000
8/20/17 10:00a 76.2 83 70.7 1.0 S 5.0 76.2 30.022 0.00 108 0.003
8/20/17 9:55a 75.9 83 70.4 2.0 S 6.0 75.9 30.021 0.00 176 0.000
8/20/17 9:50a 75.6 84 70.4 2.0 S 5.0 75.6 30.018 0.00 182 0.000
8/20/17 9:45a 75.3 84 70.1 1.0 S 4.0 75.3 30.017 0.00 55 0.000
8/20/17 9:40a 75.0 84 69.8 2.0 S 5.0 75.0 30.020 0.00 64 0.000
8/20/17 9:35a 74.8 84 69.6 2.0 S 4.0 74.8 30.020 0.00 71 0.000
8/20/17 9:30a 74.6 84 69.4 2.0 S 4.0 74.6 30.018 0.00 136 0.000
8/20/17 9:25a 74.5 84 69.3 2.0 S 5.0 74.5 30.019 0.00 73 0.000
8/20/17 9:20a 74.2 85 69.4 1.0 S 3.0 74.2 30.019 0.00 80 0.000
8/20/17 9:15a 73.9 85 69.1 1.0 S 3.0 73.9 30.017 0.00 91 0.000
8/20/17 9:10a 73.8 85 69.0 1.0 S 5.0 73.8 30.015 0.00 64 0.000
8/20/17 9:05a 73.6 85 68.8 1.0 SSW 4.0 73.6 30.016 0.00 51 0.000
8/20/17 9:00a 73.3 85 68.5 1.0 SSW 3.0 73.3 30.014 0.00 45 0.001
8/20/17 8:55a 73.1 86 68.7 1.0 S 3.0 73.1 30.012 0.00 42 0.000
8/20/17 8:50a 72.8 86 68.4 0.0 SSW 1.0 72.8 30.005 0.00 40 0.000
8/20/17 8:45a 72.4 87 68.3 1.0 SSW 3.0 72.4 30.002 0.00 43 0.000
8/20/17 8:40a 72.1 87 68.0 0.0 SW 1.0 72.1 30.003 0.00 42 0.000
8/20/17 8:35a 71.8 88 68.1 0.0 SW 1.0 71.8 30.004 0.00 38 0.000
8/20/17 8:30a 71.5 88 67.8 0.0 SW 1.0 71.5 30.005 0.00 35 0.000
8/20/17 8:25a 71.1 88 67.4 0.0 SW 3.0 71.1 30.002 0.00 33 0.000
8/20/17 8:20a 70.7 88 67.0 0.0 SW 2.0 70.7 30.000 0.00 33 0.000
8/20/17 8:15a 70.4 89 67.0 0.0 W 2.0 70.4 30.001 0.00 32 0.000
8/20/17 8:10a 70.1 89 66.7 0.0 W 1.0 70.1 29.995 0.00 30 0.000
8/20/17 8:05a 69.9 89 66.5 0.0 W 1.0 69.9 29.997 0.00 28 0.000
8/20/17 8:00a 69.8 89 66.4 0.0 --- 0.0 69.8 29.989 0.00 26 0.000
8/20/17 7:55a 69.6 89 66.2 0.0 W 1.0 69.6 29.991 0.00 26 0.000
8/20/17 7:50a 69.4 89 66.0 0.0 --- 0.0 69.4 29.994 0.00 32 0.000
8/20/17 7:45a 69.3 89 65.9 0.0 --- 0.0 69.3 29.993 0.00 21 0.000
8/20/17 7:40a 69.2 89 65.8 0.0 --- 0.0 69.2 29.993 0.00 19 0.000
8/20/17 7:35a 69.1 89 65.7 0.0 --- 0.0 69.1 29.990 0.00 18 0.000
8/20/17 7:30a 69.0 89 65.6 0.0 --- 0.0 69.0 29.988 0.00 16 0.000
8/20/17 7:25a 69.0 89 65.6 0.0 --- 0.0 69.0 29.985 0.00 13 0.000
8/20/17 7:20a 68.9 89 65.5 0.0 --- 0.0 68.9 29.982 0.00 11 0.000
8/20/17 7:15a 68.9 89 65.5 0.0 --- 0.0 68.9 29.982 0.00 8 0.000
8/20/17 7:10a 69.0 89 65.6 0.0 --- 0.0 69.0 29.980 0.00 3 0.000
8/20/17 7:05a 69.2 89 65.8 0.0 --- 0.0 69.2 29.981 0.00 0 0.000
8/20/17 7:00a 69.3 89 65.9 0.0 --- 0.0 69.3 29.979 0.00 0 0.000
8/20/17 6:55a 69.4 88 65.7 0.0 --- 0.0 69.4 29.976 0.00 0 0.000
8/20/17 6:50a 69.4 89 66.0 0.0 --- 0.0 69.4 29.973 0.00 0 0.000
8/20/17 6:45a 69.4 89 66.0 0.0 --- 0.0 69.4 29.971 0.00 0 0.000
8/20/17 6:40a 69.4 89 66.0 0.0 --- 0.0 69.4 29.971 0.00 0 0.000
8/20/17 6:35a 69.4 89 66.0 0.0 --- 0.0 69.4 29.971 0.00 0 0.000
8/20/17 6:30a 69.4 89 66.0 0.0 --- 0.0 69.4 29.970 0.00 0 0.000
8/20/17 6:25a 69.4 89 66.0 0.0 --- 0.0 69.4 29.968 0.00 0 0.000
8/20/17 6:20a 69.4 89 66.0 0.0 --- 0.0 69.4 29.966 0.00 0 0.000
8/20/17 6:15a 69.5 88 65.8 0.0 --- 0.0 69.5 29.968 0.00 0 0.000
8/20/17 6:10a 69.5 89 66.1 0.0 --- 0.0 69.5 29.968 0.00 0 0.000
8/20/17 6:05a 69.5 89 66.1 0.0 --- 0.0 69.5 29.968 0.00 0 0.000
8/20/17 6:00a 69.5 89 66.1 0.0 --- 0.0 69.5 29.968 0.00 0 0.000
8/20/17 5:55a 69.5 89 66.1 0.0 --- 0.0 69.5 29.968 0.00 0 0.000
8/20/17 5:50a 69.5 89 66.1 0.0 W 1.0 69.5 29.970 0.00 0 0.000
8/20/17 5:45a 69.6 89 66.2 0.0 --- 0.0 69.6 29.967 0.00 0 0.000
8/20/17 5:40a 69.7 89 66.3 0.0 --- 0.0 69.7 29.965 0.00 0 0.000
8/20/17 5:35a 69.8 88 66.1 0.0 --- 0.0 69.8 29.964 0.00 0 0.000
8/20/17 5:30a 69.9 88 66.2 0.0 W 1.0 69.9 29.966 0.00 0 0.000
8/20/17 5:25a 70.0 88 66.3 0.0 W 1.0 70.0 29.964 0.00 0 0.000
8/20/17 5:20a 70.1 88 66.4 0.0 --- 0.0 70.1 29.964 0.00 0 0.000
8/20/17 5:15a 70.1 88 66.4 0.0 --- 0.0 70.1 29.964 0.00 0 0.000
8/20/17 5:10a 70.2 88 66.5 0.0 --- 0.0 70.2 29.966 0.00 0 0.000
8/20/17 5:05a 70.3 88 66.6 0.0 --- 0.0 70.3 29.967 0.00 0 0.000
8/20/17 5:00a 70.4 88 66.7 0.0 --- 0.0 70.4 29.966 0.00 0 0.000
8/20/17 4:55a 70.4 88 66.7 0.0 --- 0.0 70.4 29.968 0.00 0 0.000
8/20/17 4:50a 70.5 88 66.8 0.0 --- 0.0 70.5 29.966 0.00 0 0.000
8/20/17 4:45a 70.7 88 67.0 0.0 --- 0.0 70.7 29.966 0.00 0 0.000
8/20/17 4:40a 71.0 88 67.3 0.0 --- 0.0 71.0 29.964 0.00 0 0.000
8/20/17 4:35a 71.2 87 67.1 0.0 --- 0.0 71.2 29.963 0.00 0 0.000
8/20/17 4:30a 71.3 87 67.2 0.0 --- 0.0 71.3 29.959 0.00 0 0.000
8/20/17 4:25a 71.3 87 67.2 0.0 --- 0.0 71.3 29.956 0.00 0 0.000
8/20/17 4:20a 71.2 87 67.1 0.0 --- 0.0 71.2 29.956 0.00 0 0.000
8/20/17 4:15a 71.3 87 67.2 0.0 --- 0.0 71.3 29.952 0.00 0 0.000
8/20/17 4:10a 71.5 87 67.4 0.0 --- 0.0 71.5 29.953 0.00 0 0.000
8/20/17 4:05a 71.6 87 67.5 0.0 --- 0.0 71.6 29.953 0.00 0 0.000
8/20/17 4:00a 71.9 86 67.5 0.0 --- 0.0 71.9 29.952 0.00 0 0.001
8/20/17 3:55a 72.0 86 67.6 0.0 --- 0.0 72.0 29.951 0.00 0 0.000
8/20/17 3:50a 72.1 86 67.7 0.0 --- 0.0 72.1 29.951 0.00 0 0.000
8/20/17 3:45a 72.1 86 67.7 0.0 --- 0.0 72.1 29.952 0.00 0 0.000
8/20/17 3:40a 72.2 86 67.8 0.0 --- 0.0 72.2 29.952 0.00 0 0.000
8/20/17 3:35a 72.4 86 68.0 0.0 --- 0.0 72.4 29.951 0.00 0 0.000
8/20/17 3:30a 72.5 85 67.7 0.0 --- 0.0 72.5 29.952 0.00 0 0.000
8/20/17 3:25a 72.6 86 68.2 0.0 --- 0.0 72.6 29.949 0.00 0 0.000
8/20/17 3:20a 72.6 85 67.8 0.0 --- 0.0 72.6 29.948 0.00 0 0.000
8/20/17 3:15a 72.5 85 67.7 0.0 --- 0.0 72.5 29.947 0.00 0 0.000
8/20/17 3:10a 72.5 85 67.7 0.0 W 1.0 72.5 29.945 0.00 0 0.000
8/20/17 3:05a 72.4 85 67.6 0.0 --- 0.0 72.4 29.947 0.00 0 0.000
8/20/17 3:00a 72.3 86 67.9 0.0 --- 0.0 72.3 29.947 0.00 0 0.001
8/20/17 2:55a 72.2 85 67.4 0.0 --- 0.0 72.2 29.951 0.00 0 0.000
8/20/17 2:50a 72.2 86 67.8 0.0 --- 0.0 72.2 29.953 0.00 0 0.000
8/20/17 2:45a 72.2 86 67.8 0.0 --- 0.0 72.2 29.956 0.00 0 0.000
8/20/17 2:40a 72.3 85 67.5 0.0 W 2.0 72.3 29.957 0.00 0 0.000
8/20/17 2:35a 72.4 85 67.6 0.0 --- 0.0 72.4 29.957 0.00 0 0.000
8/20/17 2:30a 72.4 85 67.6 0.0 --- 0.0 72.4 29.955 0.00 0 0.000
8/20/17 2:25a 72.5 85 67.7 0.0 --- 0.0 72.5 29.956 0.00 0 0.000
8/20/17 2:20a 72.5 85 67.7 0.0 --- 0.0 72.5 29.956 0.00 0 0.000
8/20/17 2:15a 72.5 85 67.7 0.0 --- 0.0 72.5 29.955 0.00 0 0.000
8/20/17 2:10a 72.5 84 67.4 0.0 --- 0.0 72.5 29.957 0.00 0 0.000
8/20/17 2:05a 72.5 85 67.7 0.0 W 2.0 72.5 29.958 0.00 0 0.000
8/20/17 2:00a 72.5 85 67.7 1.0 WSW 3.0 72.5 29.957 0.00 0 0.001
8/20/17 1:55a 72.5 85 67.7 0.0 WSW 2.0 72.5 29.957 0.00 0 0.000
8/20/17 1:50a 72.5 85 67.7 3.0 WNW 8.0 72.5 29.958 0.00 0 0.000
8/20/17 1:45a 72.6 85 67.8 3.0 NW 5.0 72.6 29.956 0.00 0 0.000
8/20/17 1:40a 73.1 85 68.3 0.0 WSW 3.0 73.1 29.952 0.00 0 0.000
8/20/17 1:35a 72.9 83 67.4 0.0 --- 0.0 72.9 29.951 0.00 0 0.000
8/20/17 1:30a 72.8 84 67.7 0.0 --- 0.0 72.8 29.952 0.00 0 0.000
8/20/17 1:25a 72.8 84 67.7 0.0 --- 0.0 72.8 29.953 0.00 0 0.000
8/20/17 1:20a 72.7 84 67.6 0.0 --- 0.0 72.7 29.953 0.00 0 0.000
8/20/17 1:15a 72.5 84 67.4 0.0 --- 0.0 72.5 29.954 0.00 0 0.000
8/20/17 1:10a 72.5 85 67.7 0.0 --- 0.0 72.5 29.953 0.00 0 0.000
8/20/17 1:05a 72.3 85 67.5 0.0 --- 0.0 72.3 29.952 0.00 0 0.000
8/20/17 1:00a 72.1 85 67.3 0.0 --- 0.0 72.1 29.952 0.00 0 0.001
8/20/17 12:55a 72.0 85 67.2 0.0 --- 0.0 72.0 29.954 0.00 0 0.000
8/20/17 12:50a 71.9 85 67.1 0.0 --- 0.0 71.9 29.952 0.00 0 0.000
8/20/17 12:45a 72.0 86 67.6 0.0 --- 0.0 72.0 29.951 0.00 0 0.000
8/20/17 12:40a 72.0 86 67.6 0.0 --- 0.0 72.0 29.951 0.00 0 0.000
8/20/17 12:35a 71.9 86 67.5 0.0 --- 0.0 71.9 29.946 0.00 0 0.000
8/20/17 12:30a 72.0 86 67.6 0.0 WSW 1.0 72.0 29.942 0.00 0 0.000
8/20/17 12:25a 72.1 86 67.7 0.0 WSW 1.0 72.1 29.946 0.00 0 0.000
8/20/17 12:20a 72.2 86 67.8 0.0 --- 0.0 72.2 29.947 0.00 0 0.000
8/20/17 12:15a 72.1 86 67.7 0.0 --- 0.0 72.1 29.946 0.00 0 0.000
8/20/17 12:10a 72.2 85 67.4 0.0 --- 0.0 72.2 29.946 0.00 0 0.000
8/20/17 12:05a 72.6 85 67.8 0.0 --- 0.0 72.6 29.941 0.00 0 0.000

11,559 Page Views